createdAt,value
2023-02-02T00:01:50.628Z,100120.59
2023-02-02T00:04:19.975Z,100113.97
2023-02-02T00:06:47.187Z,100109.81
2023-02-02T00:09:16.112Z,100103.16
2023-02-02T00:11:43.656Z,100103.22
2023-02-02T00:14:09.950Z,100103.38
2023-02-02T00:16:41.428Z,100118.69
2023-02-02T00:19:12.346Z,100106.09
2023-02-02T00:21:38.841Z,100108.66
2023-02-02T00:24:07.190Z,100102.66
2023-02-02T00:26:33.748Z,100100.16
2023-02-02T00:29:00.485Z,100091.78
2023-02-02T00:31:26.870Z,100090.91
2023-02-02T00:33:53.189Z,100090.88
2023-02-02T00:36:20.488Z,100071.56
2023-02-02T00:38:48.199Z,100074.06
2023-02-02T00:41:14.715Z,100080.03
2023-02-02T00:43:41.091Z,100080.06
2023-02-02T00:46:18.528Z,100067.31
2023-02-02T00:48:44.846Z,100066.38
2023-02-02T00:51:11.179Z,100084.09
2023-02-02T00:53:37.513Z,100085.69
2023-02-02T00:56:04.074Z,100085.75
2023-02-02T00:58:30.410Z,100076.50
2023-02-02T01:00:56.794Z,100067.16
2023-02-02T01:03:23.125Z,100067.91
2023-02-02T01:05:49.438Z,100074.69
2023-02-02T01:08:15.751Z,100087.44
2023-02-02T01:10:42.059Z,100079.91
2023-02-02T01:13:08.410Z,100069.75
2023-02-02T01:15:34.812Z,100089.19
2023-02-02T01:18:01.121Z,100068.03
2023-02-02T01:20:27.405Z,100065.59
2023-02-02T01:22:53.730Z,100071.47
2023-02-02T01:25:20.025Z,100067.25
2023-02-02T01:27:46.444Z,100078.22
2023-02-02T01:30:13.468Z,100077.41
2023-02-02T01:32:39.803Z,100076.47
2023-02-02T01:35:06.586Z,100069.56
2023-02-02T01:37:32.890Z,100095.97
2023-02-02T01:39:59.323Z,100068.88
2023-02-02T01:42:26.237Z,100079.00
2023-02-02T01:44:52.500Z,100098.50
2023-02-02T01:47:26.499Z,100084.91
2023-02-02T01:49:55.081Z,100091.53
2023-02-02T01:52:23.970Z,100087.31
2023-02-02T01:54:54.569Z,100105.13
2023-02-02T01:57:46.937Z,100102.72
2023-02-02T02:00:15.680Z,100107.06
2023-02-02T02:02:48.299Z,100099.53
2023-02-02T02:05:21.914Z,100105.41
2023-02-02T02:07:52.384Z,100106.28
2023-02-02T02:10:18.823Z,100105.38
2023-02-02T02:12:47.466Z,100116.44
2023-02-02T02:15:13.822Z,100112.28
2023-02-02T02:18:01.130Z,100105.50
2023-02-02T02:21:04.126Z,100118.28
2023-02-02T02:23:49.451Z,100116.56
2023-02-02T02:26:42.769Z,100119.94
2023-02-02T02:29:29.136Z,100118.28
2023-02-02T02:32:07.596Z,100125.97
2023-02-02T02:35:09.859Z,100116.66
2023-02-02T02:37:45.040Z,100120.94
2023-02-02T02:40:32.241Z,100131.22
2023-02-02T02:43:05.080Z,100131.28
2023-02-02T02:45:32.125Z,100142.31
2023-02-02T02:47:58.796Z,100133.88
2023-02-02T02:50:25.525Z,100137.25
2023-02-02T02:53:01.830Z,100141.53
2023-02-02T02:55:38.758Z,100139.06
2023-02-02T02:58:27.575Z,100141.66
2023-02-02T03:01:19.584Z,100143.25
2023-02-02T03:04:03.154Z,100151.00
2023-02-02T03:06:41.477Z,100144.19
2023-02-02T03:09:21.970Z,100145.13
2023-02-02T03:11:48.354Z,100152.78
2023-02-02T03:14:14.832Z,100160.31
2023-02-02T03:16:41.174Z,100175.47
2023-02-02T03:19:08.152Z,100179.72
2023-02-02T03:21:35.004Z,100179.88
2023-02-02T03:24:01.777Z,100197.50
2023-02-02T03:26:28.480Z,100205.75
2023-02-02T03:28:56.279Z,100209.13
2023-02-02T03:31:23.237Z,100222.66
2023-02-02T03:33:49.560Z,100231.97
2023-02-02T03:36:15.870Z,100240.38
2023-02-02T03:38:42.152Z,100228.50
2023-02-02T03:41:08.435Z,100231.84
2023-02-02T03:43:34.738Z,100247.94
2023-02-02T03:46:03.189Z,100251.38
2023-02-02T03:48:29.758Z,100269.03
2023-02-02T03:50:56.385Z,100270.44
2023-02-02T03:53:23.473Z,100273.63
2023-02-02T03:55:49.804Z,100271.16
2023-02-02T03:58:16.150Z,100279.63
2023-02-02T04:00:42.466Z,100283.78
2023-02-02T04:03:08.861Z,100291.41
2023-02-02T04:05:35.253Z,100296.72
2023-02-02T04:08:01.549Z,100292.44
2023-02-02T04:10:27.878Z,100296.72
2023-02-02T04:12:54.166Z,100309.41
2023-02-02T04:15:20.483Z,100311.06
2023-02-02T04:17:46.796Z,100306.88
2023-02-02T04:20:13.165Z,100319.50
2023-02-02T04:22:39.471Z,100330.44
2023-02-02T04:25:06.209Z,100329.63
2023-02-02T04:27:32.491Z,100326.34
2023-02-02T04:29:58.779Z,100334.78
2023-02-02T04:32:25.170Z,100341.75
2023-02-02T04:34:51.526Z,100345.91
2023-02-02T04:37:17.879Z,100348.41
2023-02-02T04:39:44.287Z,100349.31
2023-02-02T04:42:10.574Z,100356.03
2023-02-02T04:44:36.891Z,100360.16
2023-02-02T04:47:03.202Z,100365.38
2023-02-02T04:49:29.496Z,100369.50
2023-02-02T04:51:55.953Z,100371.25
2023-02-02T04:54:22.244Z,100386.56
2023-02-02T04:56:48.542Z,100380.72
2023-02-02T04:59:14.806Z,100381.59
2023-02-02T05:01:41.283Z,100401.91
2023-02-02T05:04:07.652Z,100403.47
2023-02-02T05:06:34.033Z,100402.50
2023-02-02T05:09:00.382Z,100405.03
2023-02-02T05:11:26.724Z,100409.28
2023-02-02T05:13:54.701Z,100423.69
2023-02-02T05:16:22.522Z,100436.38
2023-02-02T05:18:54.023Z,100428.63
2023-02-02T05:21:21.085Z,100436.03
2023-02-02T05:23:47.928Z,100444.19
2023-02-02T05:26:22.751Z,100444.13
2023-02-02T05:28:49.250Z,100460.91
2023-02-02T05:31:15.722Z,100446.66
2023-02-02T05:33:42.179Z,100450.84
2023-02-02T05:36:08.536Z,100466.81
2023-02-02T05:38:35.349Z,100463.38
2023-02-02T05:41:02.228Z,100467.91
2023-02-02T05:43:30.334Z,100461.03
2023-02-02T05:45:56.741Z,100480.69
2023-02-02T05:48:23.241Z,100485.75
2023-02-02T05:51:16.224Z,100484.63
2023-02-02T05:53:42.550Z,100486.47
2023-02-02T05:56:08.878Z,100495.66
2023-02-02T05:58:35.173Z,100497.59
2023-02-02T06:01:02.160Z,100498.28
2023-02-02T06:03:28.584Z,100503.31
2023-02-02T06:05:54.990Z,100514.34
2023-02-02T06:08:21.346Z,100515.25
2023-02-02T06:10:47.669Z,100529.47
2023-02-02T06:13:14.021Z,100521.00
2023-02-02T06:15:43.137Z,100535.53
2023-02-02T06:18:10.039Z,100535.44
2023-02-02T06:20:36.774Z,100557.44
2023-02-02T06:23:03.469Z,100563.34
2023-02-02T06:25:29.984Z,100545.75
2023-02-02T06:27:57.669Z,100556.72
2023-02-02T06:30:24.585Z,100559.97
2023-02-02T06:32:51.214Z,100569.41
2023-02-02T06:35:17.778Z,100550.66
2023-02-02T06:37:44.068Z,100579.44
2023-02-02T06:40:11.471Z,100576.22
2023-02-02T06:42:37.672Z,100570.50
2023-02-02T06:45:04.595Z,100572.94
2023-02-02T06:47:32.844Z,100577.31
2023-02-02T06:49:59.135Z,100587.47
2023-02-02T06:52:26.132Z,100581.56
2023-02-02T06:54:52.524Z,100589.91
2023-02-02T06:57:18.900Z,100591.72
2023-02-02T06:59:45.216Z,100600.19
2023-02-02T07:02:11.965Z,100607.78
2023-02-02T07:04:38.294Z,100614.75
2023-02-02T07:07:04.644Z,100620.66
2023-02-02T07:09:34.682Z,100623.13
2023-02-02T07:12:01.347Z,100622.19
2023-02-02T07:14:27.640Z,100634.97
2023-02-02T07:16:54.002Z,100625.59
2023-02-02T07:19:20.393Z,100632.38
2023-02-02T07:21:49.960Z,100644.19
2023-02-02T07:24:16.404Z,100645.31
2023-02-02T07:26:42.765Z,100657.75
2023-02-02T07:29:13.102Z,100662.00
2023-02-02T07:31:39.783Z,100662.09
2023-02-02T07:34:06.426Z,100667.03
2023-02-02T07:36:33.509Z,100678.91
2023-02-02T07:38:59.882Z,100676.44
2023-02-02T07:41:26.202Z,100684.88
2023-02-02T07:43:52.519Z,100680.75
2023-02-02T07:46:19.968Z,100686.59
2023-02-02T07:48:46.594Z,100693.47
2023-02-02T07:51:15.909Z,100691.72
2023-02-02T07:53:47.479Z,100689.94
2023-02-02T07:56:25.379Z,100695.06
2023-02-02T07:58:53.195Z,100704.41
2023-02-02T08:01:19.900Z,100701.84
2023-02-02T08:03:46.269Z,100707.50
2023-02-02T08:06:18.907Z,100718.56
2023-02-02T08:08:46.314Z,100710.91
2023-02-02T08:11:15.271Z,100715.19
2023-02-02T08:13:42.766Z,100715.22
2023-02-02T08:16:09.704Z,100725.94
2023-02-02T08:18:37.027Z,100728.38
2023-02-02T08:21:04.946Z,100737.91
2023-02-02T08:23:31.772Z,100746.13
2023-02-02T08:26:22.328Z,100741.88
2023-02-02T08:28:52.608Z,100750.41
2023-02-02T08:31:22.201Z,100757.19
2023-02-02T08:33:48.863Z,100758.25
2023-02-02T08:36:17.782Z,100755.91
2023-02-02T08:38:44.459Z,100763.75
2023-02-02T08:41:13.872Z,100763.75
2023-02-02T08:43:41.357Z,100763.06
2023-02-02T08:46:10.315Z,100777.53
2023-02-02T08:48:37.131Z,100771.59
2023-02-02T08:51:05.017Z,100766.53
2023-02-02T08:53:32.241Z,100773.28
2023-02-02T08:56:03.787Z,100774.94
2023-02-02T08:58:31.047Z,100778.41
2023-02-02T09:01:08.857Z,100792.31
2023-02-02T09:03:35.461Z,100791.63
2023-02-02T09:06:07.350Z,100784.34
2023-02-02T09:08:33.796Z,100792.84
2023-02-02T09:11:08.806Z,100782.53
2023-02-02T09:13:36.429Z,100797.75
2023-02-02T09:16:04.592Z,100799.47
2023-02-02T09:18:31.205Z,100799.47
2023-02-02T09:21:02.663Z,100803.75
2023-02-02T09:23:33.373Z,100814.91
2023-02-02T09:26:29.376Z,100813.22
2023-02-02T09:29:01.650Z,100817.56
2023-02-02T09:31:28.876Z,100813.47
2023-02-02T09:33:55.341Z,100809.06
2023-02-02T09:36:23.804Z,100827.84
2023-02-02T09:38:51.278Z,100827.19
2023-02-02T09:41:39.465Z,100825.28
2023-02-02T09:44:21.083Z,100838.06
2023-02-02T09:47:19.412Z,100839.19
2023-02-02T09:50:03.715Z,100837.44
2023-02-02T09:52:47.778Z,100842.66
2023-02-02T09:55:28.016Z,100845.22
2023-02-02T09:58:01.450Z,100867.44
2023-02-02T10:00:31.167Z,100847.16
2023-02-02T10:03:03.805Z,100854.66
2023-02-02T10:05:51.057Z,100860.56
2023-02-02T10:08:34.790Z,100854.56
2023-02-02T10:11:10.934Z,100849.50
2023-02-02T10:13:39.345Z,100850.94
2023-02-02T10:16:18.604Z,100858.00
2023-02-02T10:18:51.532Z,100855.66
2023-02-02T10:21:28.950Z,100848.88
2023-02-02T10:23:55.465Z,100856.81
2023-02-02T10:26:39.940Z,100861.50
2023-02-02T10:29:21.570Z,100869.13
2023-02-02T10:32:02.583Z,100871.09
2023-02-02T10:34:35.960Z,100873.97
2023-02-02T10:37:08.033Z,100873.13
2023-02-02T10:39:40.085Z,100878.28
2023-02-02T10:42:23.075Z,100881.25
2023-02-02T10:44:56.403Z,100882.41
2023-02-02T10:47:27.622Z,100880.03
2023-02-02T10:50:12.002Z,100890.31
2023-02-02T10:52:41.777Z,100878.31
2023-02-02T10:55:14.223Z,100886.94
2023-02-02T10:58:11.496Z,100897.13
2023-02-02T11:00:58.301Z,100896.69
2023-02-02T11:03:29.629Z,100907.75
2023-02-02T11:05:59.709Z,100910.09
2023-02-02T11:08:39.363Z,100921.09
2023-02-02T11:11:23.119Z,100914.72
2023-02-02T11:14:07.860Z,100918.16
2023-02-02T11:16:43.241Z,100921.28
2023-02-02T11:19:19.044Z,100928.81
2023-02-02T11:21:47.423Z,100915.25
2023-02-02T11:24:23.880Z,100948.22
2023-02-02T11:26:55.047Z,100944.84
2023-02-02T11:29:39.542Z,100955.03
2023-02-02T11:32:25.685Z,100955.59
2023-02-02T11:35:04.137Z,100959.81
2023-02-02T11:37:32.169Z,100953.78
2023-02-02T11:40:23.617Z,100963.94
2023-02-02T11:42:51.855Z,100957.81
2023-02-02T11:45:23.731Z,100967.03
2023-02-02T11:47:50.935Z,100967.03
2023-02-02T11:50:24.831Z,100966.94
2023-02-02T11:52:51.597Z,100985.25
2023-02-02T11:55:25.594Z,101001.56
2023-02-02T11:58:17.942Z,100995.16
2023-02-02T12:01:02.213Z,100989.69
2023-02-02T12:03:33.439Z,100991.41
2023-02-02T12:06:00.147Z,101010.00
2023-02-02T12:08:26.476Z,100996.66
2023-02-02T12:11:01.709Z,100999.13
2023-02-02T12:13:46.309Z,101005.16
2023-02-02T12:16:33.698Z,101008.63
2023-02-02T12:19:18.579Z,101012.13
2023-02-02T12:22:12.098Z,101018.28
2023-02-02T12:25:02.187Z,101005.69
2023-02-02T12:27:51.423Z,101023.59
2023-02-02T12:30:27.518Z,101017.53
2023-02-02T12:33:21.139Z,101017.41
2023-02-02T12:35:58.902Z,101020.06
2023-02-02T12:38:41.528Z,101030.22
2023-02-02T12:41:45.277Z,101024.25
2023-02-02T12:44:28.666Z,101033.91
2023-02-02T12:47:06.457Z,101034.75
2023-02-02T12:49:59.423Z,101044.88
2023-02-02T12:52:47.493Z,101040.56
2023-02-02T12:55:27.743Z,101046.78
2023-02-02T12:58:23.502Z,101044.94
2023-02-02T13:00:56.486Z,101044.81
2023-02-02T13:03:45.035Z,101045.94
2023-02-02T13:07:08.649Z,101045.63
2023-02-02T13:09:49.435Z,101040.63
2023-02-02T13:12:19.853Z,101055.38
2023-02-02T13:15:03.037Z,101062.03
2023-02-02T13:17:56.118Z,101064.69
2023-02-02T13:20:43.552Z,101062.47
2023-02-02T13:23:15.122Z,101068.63
2023-02-02T13:25:50.725Z,101080.34
2023-02-02T13:28:41.169Z,101084.72
2023-02-02T13:31:17.866Z,101093.06
2023-02-02T13:33:49.690Z,101097.91
2023-02-02T13:36:23.222Z,101105.81
2023-02-02T13:38:50.046Z,101118.06
2023-02-02T13:41:16.594Z,101125.44
2023-02-02T13:44:07.227Z,101137.22
2023-02-02T13:46:47.036Z,101137.06
2023-02-02T13:49:20.459Z,101145.81
2023-02-02T13:51:52.003Z,101142.66
2023-02-02T13:54:55.154Z,101148.81
2023-02-02T13:57:56.861Z,101141.34
2023-02-02T14:00:30.895Z,101156.72
2023-02-02T14:03:03.639Z,101158.44
2023-02-02T14:05:34.396Z,101154.84
2023-02-02T14:08:20.443Z,101165.03
2023-02-02T14:10:52.590Z,101179.34
2023-02-02T14:13:36.980Z,101180.88
2023-02-02T14:16:05.839Z,101190.97
2023-02-02T14:18:55.814Z,101208.09
2023-02-02T14:21:31.402Z,101211.22
2023-02-02T14:24:26.878Z,101214.50
2023-02-02T14:26:54.492Z,101216.00
2023-02-02T14:29:26.835Z,101221.78
2023-02-02T14:31:54.713Z,101231.25
2023-02-02T14:34:31.719Z,101234.34
2023-02-02T14:37:20.496Z,101243.69
2023-02-02T14:40:11.393Z,101251.84
2023-02-02T14:42:59.426Z,101256.84
2023-02-02T14:45:29.506Z,101261.66
2023-02-02T14:48:00.630Z,101275.09
2023-02-02T14:50:39.217Z,101284.88
2023-02-02T14:53:31.740Z,101285.63
2023-02-02T14:56:08.060Z,101286.88
2023-02-02T14:58:38.937Z,101295.72
2023-02-02T15:01:17.170Z,101302.84
2023-02-02T15:03:43.442Z,101309.44
2023-02-02T15:06:33.187Z,101313.75
2023-02-02T15:09:21.222Z,101319.31
2023-02-02T15:12:01.471Z,101327.50
2023-02-02T15:14:52.961Z,101327.56
2023-02-02T15:17:40.406Z,101339.78
2023-02-02T15:20:15.818Z,101348.75
2023-02-02T15:22:48.208Z,101342.44
2023-02-02T15:25:23.812Z,101347.78
2023-02-02T15:27:57.396Z,101352.38
2023-02-02T15:30:27.000Z,101364.25
2023-02-02T15:32:54.943Z,101375.34
2023-02-02T15:35:27.005Z,101379.75
2023-02-02T15:37:59.247Z,101372.00
2023-02-02T15:40:27.670Z,101390.38
2023-02-02T15:43:01.523Z,101393.28
2023-02-02T15:45:27.750Z,101397.91
2023-02-02T15:47:58.781Z,101400.44
2023-02-02T15:50:25.838Z,101407.63
2023-02-02T15:52:53.795Z,101414.81
2023-02-02T15:55:21.869Z,101427.44
2023-02-02T15:57:48.502Z,101434.22
2023-02-02T16:00:30.304Z,101436.94
2023-02-02T16:03:10.423Z,101445.31
2023-02-02T16:05:36.730Z,101450.75
2023-02-02T16:08:08.066Z,101450.56
2023-02-02T16:10:35.324Z,101458.59
2023-02-02T16:13:02.167Z,101464.44
2023-02-02T16:15:29.870Z,101464.16
2023-02-02T16:18:04.999Z,101478.28
2023-02-02T16:20:34.910Z,101474.56
2023-02-02T16:23:03.583Z,101485.19
2023-02-02T16:25:37.212Z,101489.38
2023-02-02T16:28:04.468Z,101489.31
2023-02-02T16:30:33.983Z,101494.91
2023-02-02T16:33:27.415Z,101501.84
2023-02-02T16:35:54.444Z,101518.50
2023-02-02T16:38:32.835Z,101524.00
2023-02-02T16:41:05.126Z,101533.63
2023-02-02T16:43:31.488Z,101533.63
2023-02-02T16:46:10.484Z,101540.81
2023-02-02T16:48:39.947Z,101544.97
2023-02-02T16:51:17.527Z,101555.63
2023-02-02T16:53:46.962Z,101555.19
2023-02-02T16:56:48.455Z,101550.47
2023-02-02T16:59:34.431Z,101554.28
2023-02-02T17:02:14.223Z,101563.38
2023-02-02T17:04:40.875Z,101554.84
2023-02-02T17:07:13.174Z,101567.19
2023-02-02T17:09:43.717Z,101566.25
2023-02-02T17:12:30.491Z,101569.38
2023-02-02T17:15:01.458Z,101574.31
2023-02-02T17:17:27.930Z,101575.19
2023-02-02T17:19:54.296Z,101580.00
2023-02-02T17:22:23.566Z,101583.09
2023-02-02T17:24:52.042Z,101588.75
2023-02-02T17:27:26.719Z,101593.44
2023-02-02T17:29:53.805Z,101598.91
2023-02-02T17:32:20.179Z,101591.25
2023-02-02T17:34:49.304Z,101592.00
2023-02-02T17:37:15.659Z,101595.41
2023-02-02T17:39:42.003Z,101598.84
2023-02-02T17:42:22.535Z,101597.50
2023-02-02T17:44:48.828Z,101604.94
2023-02-02T17:47:15.342Z,101615.47
2023-02-02T17:49:41.667Z,101624.28
2023-02-02T17:52:10.013Z,101627.88
2023-02-02T17:54:36.564Z,101625.25
2023-02-02T17:57:02.918Z,101628.31
2023-02-02T17:59:29.217Z,101636.34
2023-02-02T18:01:55.607Z,101637.75
2023-02-02T18:04:21.978Z,101627.41
2023-02-02T18:06:48.288Z,101633.84
2023-02-02T18:09:14.568Z,101641.16
2023-02-02T18:11:42.494Z,101649.34
2023-02-02T18:14:09.292Z,101649.19
2023-02-02T18:16:35.610Z,101649.09
2023-02-02T18:19:01.942Z,101642.06
2023-02-02T18:21:28.600Z,101640.22
2023-02-02T18:23:54.992Z,101642.41
2023-02-02T18:26:22.345Z,101641.38
2023-02-02T18:28:50.919Z,101636.09
2023-02-02T18:31:20.168Z,101641.72
2023-02-02T18:33:47.323Z,101643.03
2023-02-02T18:36:17.268Z,101641.03
2023-02-02T18:38:43.847Z,101649.22
2023-02-02T18:41:10.142Z,101649.81
2023-02-02T18:43:36.466Z,101651.81
2023-02-02T18:46:05.350Z,101653.19
2023-02-02T18:48:32.048Z,101648.56
2023-02-02T18:50:58.880Z,101656.91
2023-02-02T18:53:25.217Z,101654.03
2023-02-02T18:55:51.562Z,101658.31
2023-02-02T18:58:17.872Z,101655.59
2023-02-02T19:00:44.195Z,101654.19
2023-02-02T19:03:10.495Z,101646.53
2023-02-02T19:05:36.797Z,101650.44
2023-02-02T19:08:03.123Z,101650.25
2023-02-02T19:10:29.557Z,101648.53
2023-02-02T19:13:00.658Z,101643.81
2023-02-02T19:15:27.352Z,101650.59
2023-02-02T19:17:54.787Z,101643.91
2023-02-02T19:20:30.214Z,101652.72
2023-02-02T19:23:04.280Z,101654.13
2023-02-02T19:25:30.629Z,101653.34
2023-02-02T19:27:58.234Z,101656.53
2023-02-02T19:30:25.012Z,101664.56
2023-02-02T19:32:51.559Z,101661.19
2023-02-02T19:35:20.815Z,101660.63
2023-02-02T19:37:49.491Z,101660.47
2023-02-02T19:40:22.921Z,101670.34
2023-02-02T19:42:57.083Z,101665.97
2023-02-02T19:45:31.449Z,101671.00
2023-02-02T19:48:06.599Z,101668.28
2023-02-02T19:50:38.177Z,101669.16
2023-02-02T19:53:13.624Z,101667.34
2023-02-02T19:55:41.062Z,101672.28
2023-02-02T19:58:28.375Z,101675.38
2023-02-02T20:00:57.104Z,101689.69
2023-02-02T20:03:27.309Z,101682.94
2023-02-02T20:05:56.238Z,101682.63
2023-02-02T20:08:25.998Z,101680.03
2023-02-02T20:10:54.037Z,101677.69
2023-02-02T20:13:24.803Z,101675.94
2023-02-02T20:16:03.377Z,101675.94
2023-02-02T20:18:38.762Z,101675.09
2023-02-02T20:21:09.529Z,101673.53
2023-02-02T20:23:43.866Z,101684.78
2023-02-02T20:26:19.805Z,101689.81
2023-02-02T20:28:46.150Z,101687.75
2023-02-02T20:31:16.067Z,101681.09
2023-02-02T20:33:45.877Z,101684.66
2023-02-02T20:36:26.491Z,101681.59
2023-02-02T20:38:52.912Z,101680.72
2023-02-02T20:41:19.226Z,101680.50
2023-02-02T20:43:45.594Z,101679.22
2023-02-02T20:46:14.760Z,101672.25
2023-02-02T20:48:41.765Z,101674.97
2023-02-02T20:51:08.317Z,101674.47
2023-02-02T20:53:34.685Z,101676.28
2023-02-02T20:56:01.140Z,101681.50
2023-02-02T20:58:27.459Z,101666.41
2023-02-02T21:00:53.886Z,101670.66
2023-02-02T21:03:20.205Z,101665.63
2023-02-02T21:05:46.534Z,101665.63
2023-02-02T21:08:12.857Z,101653.81
2023-02-02T21:10:39.176Z,101662.25
2023-02-02T21:13:05.456Z,101656.25
2023-02-02T21:15:31.731Z,101662.91
2023-02-02T21:17:58.045Z,101651.81
2023-02-02T21:20:24.446Z,101660.41
2023-02-02T21:22:50.889Z,101655.38
2023-02-02T21:25:17.262Z,101654.41
2023-02-02T21:27:43.586Z,101651.81
2023-02-02T21:30:12.180Z,101644.16
2023-02-02T21:32:38.479Z,101644.16
2023-02-02T21:35:05.838Z,101629.75
2023-02-02T21:37:35.363Z,101627.81
2023-02-02T21:40:06.606Z,101628.44
2023-02-02T21:42:33.257Z,101636.66
2023-02-02T21:45:24.593Z,101637.44
2023-02-02T21:47:55.412Z,101639.59
2023-02-02T21:50:31.169Z,101631.94
2023-02-02T21:53:09.771Z,101631.06
2023-02-02T21:55:37.991Z,101634.34
2023-02-02T21:58:18.759Z,101639.19
2023-02-02T22:00:45.550Z,101637.19
2023-02-02T22:03:39.407Z,101643.09
2023-02-02T22:06:22.753Z,101636.41
2023-02-02T22:08:49.886Z,101635.81
2023-02-02T22:11:42.776Z,101633.47
2023-02-02T22:14:20.024Z,101622.34
2023-02-02T22:16:51.915Z,101613.25
2023-02-02T22:19:32.894Z,101610.94
2023-02-02T22:22:12.544Z,101603.28
2023-02-02T22:24:39.327Z,101600.88
2023-02-02T22:27:17.885Z,101613.66
2023-02-02T22:29:44.549Z,101612.94
2023-02-02T22:32:10.856Z,101616.44
2023-02-02T22:34:37.170Z,101612.25
2023-02-02T22:37:03.469Z,101606.44
2023-02-02T22:39:29.784Z,101616.72
2023-02-02T22:41:56.104Z,101611.84
2023-02-02T22:44:22.413Z,101606.03
2023-02-02T22:46:48.684Z,101607.09
2023-02-02T22:49:15.000Z,101605.66
2023-02-02T22:51:41.280Z,101606.69
2023-02-02T22:54:07.569Z,101615.19
2023-02-02T22:56:33.850Z,101612.00
2023-02-02T22:59:00.161Z,101618.88
2023-02-02T23:01:26.456Z,101612.44
2023-02-02T23:03:52.813Z,101615.06
2023-02-02T23:06:19.123Z,101611.75
2023-02-02T23:08:45.467Z,101609.53
2023-02-02T23:11:11.783Z,101608.81
2023-02-02T23:13:38.069Z,101607.25
2023-02-02T23:16:04.687Z,101603.97
2023-02-02T23:18:31.016Z,101606.59
2023-02-02T23:20:57.311Z,101595.72
2023-02-02T23:23:23.679Z,101599.22
2023-02-02T23:25:50.006Z,101595.09
2023-02-02T23:28:16.328Z,101594.44
2023-02-02T23:30:42.677Z,101592.97
2023-02-02T23:33:09.009Z,101591.41
2023-02-02T23:35:35.331Z,101588.19
2023-02-02T23:38:01.671Z,101588.34
2023-02-02T23:40:28.263Z,101585.06
2023-02-02T23:42:54.837Z,101569.06
2023-02-02T23:45:21.200Z,101568.56
2023-02-02T23:47:47.515Z,101561.84
2023-02-02T23:50:14.073Z,101556.13
2023-02-02T23:52:40.469Z,101557.09
2023-02-02T23:55:07.691Z,101554.75
2023-02-02T23:57:34.251Z,101550.81
